Time;durP1;ratioP1;P1;durP2;ratioP2;P2;SDS_P1;SDS_P2;PMS_P1;PMS_P2;Temp;Humidity;BMP_temperature;BMP_pressure;BME280_temperature;BME280_humidity;BME280_pressure;Samples;Min_cycle;Max_cycle;Signal;HPM_P1;HPM_P2
2022/05/07 00:02:12;;;;;;;6.75;6.20;;;9.50;99.90;;;;;;5057375;28;20024;-76
2022/05/07 00:04:38;;;;;;;6.95;6.25;;;9.60;99.90;;;;;;5063891;28;20052;-75
2022/05/07 00:07:05;;;;;;;7.10;6.40;;;9.50;99.90;;;;;;5063189;28;20068;-75
2022/05/07 00:09:31;;;;;;;8.15;7.00;;;9.50;99.90;;;;;;5070387;28;20112;-76
2022/05/07 00:11:58;;;;;;;7.93;6.55;;;9.30;99.90;;;;;;5064948;28;20514;-75
2022/05/07 00:14:23;;;;;;;7.45;6.57;;;9.30;99.90;;;;;;5066454;28;20021;-76
2022/05/07 00:19:33;;;;;;;6.85;6.25;;;9.20;99.90;;;;;;5059843;28;20032;-76
2022/05/07 00:21:58;;;;;;;6.75;6.15;;;9.20;99.90;;;;;;5065410;28;20029;-76
2022/05/07 00:24:24;;;;;;;7.57;6.63;;;9.10;99.90;;;;;;5056177;28;20060;-77
2022/05/07 00:26:50;;;;;;;7.70;7.10;;;9.20;99.90;;;;;;5057598;28;20056;-76
2022/05/07 00:29:15;;;;;;;7.15;6.28;;;9.20;99.90;;;;;;5063454;28;20463;-75
2022/05/07 00:31:41;;;;;;;7.55;6.50;;;9.20;99.90;;;;;;5061214;28;20021;-75
2022/05/07 00:34:06;;;;;;;6.72;6.10;;;9.40;99.90;;;;;;5076940;28;20027;-76
2022/05/07 00:36:33;;;;;;;6.88;6.18;;;9.20;99.90;;;;;;5058417;28;20036;-75
2022/05/07 00:38:58;;;;;;;7.35;6.75;;;9.20;99.90;;;;;;5055103;28;20033;-75
2022/05/07 00:41:24;;;;;;;7.53;6.65;;;9.20;99.90;;;;;;5065236;28;20120;-75
2022/05/07 00:43:49;;;;;;;8.25;6.35;;;9.20;99.90;;;;;;5063167;28;20048;-76
2022/05/07 00:46:16;;;;;;;7.95;6.78;;;9.10;99.90;;;;;;5071945;28;20150;-76
2022/05/07 00:48:43;;;;;;;7.70;6.63;;;9.10;99.90;;;;;;5059784;28;20025;-77
2022/05/07 00:54:14;;;;;;;7.45;6.15;;;8.90;99.90;;;;;;5006386;28;20033;-76
2022/05/07 00:56:39;;;;;;;6.53;5.93;;;8.90;99.90;;;;;;5009873;28;20030;-75
2022/05/07 00:59:05;;;;;;;8.25;6.68;;;8.90;99.90;;;;;;5032467;28;20035;-77
2022/05/07 01:01:31;;;;;;;6.22;5.63;;;8.90;99.90;;;;;;5070888;28;20035;-77
2022/05/07 01:03:57;;;;;;;6.05;5.45;;;8.90;99.90;;;;;;5064282;28;20029;-77
2022/05/07 01:06:22;;;;;;;6.75;6.15;;;8.90;99.90;;;;;;5065777;28;20119;-76
2022/05/07 01:08:49;;;;;;;6.70;6.10;;;9.10;99.90;;;;;;5058485;28;20587;-76
2022/05/07 01:11:17;;;;;;;6.90;6.20;;;9.00;99.90;;;;;;5058290;28;20029;-77
2022/05/07 01:13:44;;;;;;;6.25;5.75;;;9.00;99.90;;;;;;5058678;28;20023;-77
2022/05/07 01:16:11;;;;;;;7.70;6.53;;;8.90;99.90;;;;;;5057074;28;20048;-75
2022/05/07 01:18:38;;;;;;;7.40;6.70;;;8.90;99.90;;;;;;5064312;28;20070;-75
2022/05/07 01:21:08;;;;;;;7.18;6.57;;;8.90;99.90;;;;;;5064300;28;20099;-76
2022/05/07 01:23:33;;;;;;;8.88;7.45;;;9.10;99.90;;;;;;5061363;28;20055;-75
2022/05/07 01:26:00;;;;;;;7.80;7.10;;;9.10;99.90;;;;;;5062266;28;20065;-75
2022/05/07 01:28:25;;;;;;;7.50;6.80;;;9.20;99.90;;;;;;5067741;28;20032;-76
2022/05/07 01:30:51;;;;;;;9.10;8.25;;;9.40;99.90;;;;;;5068235;28;20021;-76
2022/05/07 01:33:16;;;;;;;8.00;7.20;;;8.80;99.90;;;;;;5063391;28;20095;-75
2022/05/07 01:35:42;;;;;;;8.02;7.32;;;8.70;99.90;;;;;;5061960;28;20029;-76
2022/05/07 01:38:07;;;;;;;7.78;7.05;;;8.60;99.90;;;;;;5067243;28;20053;-74
2022/05/07 01:40:33;;;;;;;7.95;7.15;;;8.60;99.90;;;;;;5068347;28;20043;-75
2022/05/07 01:42:58;;;;;;;7.30;6.70;;;8.80;99.90;;;;;;5061507;28;20441;-74
2022/05/07 01:45:24;;;;;;;8.27;7.38;;;9.00;99.90;;;;;;5074445;28;20025;-74
2022/05/07 01:50:33;;;;;;;7.47;6.85;;;8.60;99.90;;;;;;5061053;28;20043;-75
2022/05/07 01:52:59;;;;;;;7.05;6.32;;;8.70;99.90;;;;;;5065692;28;20120;-75
2022/05/07 01:55:24;;;;;;;7.70;7.00;;;8.80;99.90;;;;;;5067282;28;20021;-75
2022/05/07 01:57:50;;;;;;;8.52;7.63;;;8.80;99.90;;;;;;5064479;28;20024;-75
2022/05/07 02:00:15;;;;;;;8.63;7.72;;;8.80;99.90;;;;;;5062165;28;20070;-75
2022/05/07 02:02:41;;;;;;;8.10;7.22;;;8.80;99.90;;;;;;5074919;28;20028;-75
2022/05/07 02:05:07;;;;;;;8.30;7.40;;;8.90;99.90;;;;;;5059975;28;20071;-76
2022/05/07 02:07:33;;;;;;;9.43;7.03;;;8.90;99.90;;;;;;5073586;28;20185;-76
2022/05/07 02:09:58;;;;;;;7.90;7.20;;;8.70;99.90;;;;;;5073393;28;20024;-76
2022/05/07 02:12:24;;;;;;;8.82;7.63;;;8.70;99.90;;;;;;5064604;28;20031;-75
2022/05/07 02:14:49;;;;;;;8.40;7.32;;;8.70;99.90;;;;;;5067878;28;20471;-75
2022/05/07 02:17:15;;;;;;;7.65;6.88;;;8.70;99.90;;;;;;5064328;28;20112;-76
2022/05/07 02:19:40;;;;;;;8.27;7.47;;;8.60;99.90;;;;;;5059876;28;20028;-76
2022/05/07 02:22:05;;;;;;;8.23;7.43;;;8.60;99.90;;;;;;5062946;28;20031;-76
2022/05/07 02:24:31;;;;;;;8.57;7.75;;;8.70;99.90;;;;;;5066552;28;20071;-76
2022/05/07 02:26:58;;;;;;;8.90;8.02;;;8.50;99.90;;;;;;5062413;28;20524;-76
2022/05/07 02:29:23;;;;;;;8.63;7.82;;;8.40;99.90;;;;;;5058345;28;20037;-75
2022/05/07 02:32:05;;;;;;;9.15;8.25;;;8.30;99.90;;;;;;5053775;28;20118;-75
2022/05/07 02:34:35;;;;;;;9.00;8.20;;;8.20;99.90;;;;;;5064903;28;20075;-75
2022/05/07 02:37:02;;;;;;;11.90;8.70;;;8.10;99.90;;;;;;5066248;28;20157;-76
2022/05/07 02:39:28;;;;;;;10.65;9.05;;;8.00;99.90;;;;;;5060662;28;20025;-75
2022/05/07 02:44:38;;;;;;;10.10;9.10;;;8.00;99.90;;;;;;5062182;28;20445;-74
2022/05/07 02:47:05;;;;;;;9.32;8.50;;;7.90;99.90;;;;;;5060604;28;20029;-75
2022/05/07 02:49:31;;;;;;;10.15;8.93;;;7.80;99.90;;;;;;5066290;28;20056;-76
2022/05/07 02:51:57;;;;;;;10.43;9.07;;;7.70;99.90;;;;;;5066870;28;20098;-75
2022/05/07 02:54:22;;;;;;;9.68;8.68;;;7.70;99.90;;;;;;5059988;28;20478;-75
2022/05/07 02:56:48;;;;;;;10.20;9.20;;;7.70;99.90;;;;;;5060032;28;20037;-75
2022/05/07 02:59:13;;;;;;;10.73;9.57;;;7.80;99.90;;;;;;5053974;28;20040;-76
2022/05/07 03:01:41;;;;;;;11.18;8.90;;;7.80;99.90;;;;;;5068010;28;20071;-77
2022/05/07 03:04:07;;;;;;;9.50;8.65;;;7.90;99.90;;;;;;5053564;28;20033;-76
2022/05/07 03:06:33;;;;;;;11.18;10.18;;;7.80;99.90;;;;;;5067304;28;20028;-75
2022/05/07 03:08:58;;;;;;;14.65;9.80;;;7.80;99.90;;;;;;5061866;28;20037;-76
2022/05/07 03:11:24;;;;;;;11.82;10.65;;;7.70;99.90;;;;;;5059660;28;20040;-76
2022/05/07 03:13:49;;;;;;;11.93;9.77;;;7.60;99.90;;;;;;5072340;28;20048;-76
2022/05/07 03:16:15;;;;;;;10.35;9.45;;;7.70;99.90;;;;;;5058939;28;20383;-76
2022/05/07 03:18:40;;;;;;;10.77;9.68;;;7.60;99.90;;;;;;5065252;28;20023;-76
2022/05/07 03:21:06;;;;;;;9.88;8.88;;;7.60;99.90;;;;;;5066217;28;20643;-75
2022/05/07 03:23:31;;;;;;;9.43;8.43;;;7.60;99.90;;;;;;5060584;28;20027;-76
2022/05/07 03:25:57;;;;;;;9.70;8.40;;;7.80;99.90;;;;;;5058930;28;20033;-77
2022/05/07 03:28:22;;;;;;;9.77;8.88;;;7.80;99.90;;;;;;5063733;28;20041;-76
2022/05/07 03:30:48;;;;;;;10.98;9.88;;;7.70;99.90;;;;;;5066087;28;20028;-76
2022/05/07 03:33:14;;;;;;;9.60;8.70;;;7.60;99.90;;;;;;5061333;28;20060;-76
2022/05/07 03:35:40;;;;;;;9.88;8.55;;;7.60;99.90;;;;;;5058538;28;20486;-75
2022/05/07 03:38:06;;;;;;;9.63;8.82;;;7.70;99.90;;;;;;5064649;28;20071;-77
2022/05/07 03:40:32;;;;;;;9.88;8.88;;;8.00;99.90;;;;;;5064582;28;20052;-76
2022/05/07 03:42:58;;;;;;;9.43;8.45;;;8.00;99.90;;;;;;5061497;28;20031;-75
2022/05/07 03:45:24;;;;;;;9.77;8.68;;;7.90;99.90;;;;;;5057644;28;20578;-76
2022/05/07 03:47:49;;;;;;;10.02;9.15;;;7.90;99.90;;;;;;5067843;28;20115;-76
2022/05/07 03:50:15;;;;;;;9.88;9.00;;;7.90;99.90;;;;;;5057295;28;20119;-73
2022/05/07 03:55:25;;;;;;;11.13;10.15;;;7.80;99.90;;;;;;5055709;28;20074;-74
2022/05/07 03:57:50;;;;;;;10.38;9.38;;;7.80;99.90;;;;;;5052791;28;20032;-76
2022/05/07 04:00:16;;;;;;;11.23;9.85;;;7.70;99.90;;;;;;5063999;28;20021;-76
2022/05/07 04:02:41;;;;;;;9.73;8.82;;;7.70;99.90;;;;;;5051583;28;20044;-76
2022/05/07 04:05:07;;;;;;;11.23;10.13;;;7.80;99.90;;;;;;5065959;28;20040;-76
2022/05/07 04:07:33;;;;;;;10.23;9.18;;;7.90;99.90;;;;;;5051207;28;20037;-76
2022/05/07 04:09:59;;;;;;;12.00;10.52;;;8.00;99.90;;;;;;5060608;28;20438;-75
2022/05/07 04:12:24;;;;;;;10.38;9.18;;;8.00;99.90;;;;;;5051984;28;20024;-77
2022/05/07 04:14:50;;;;;;;10.50;9.35;;;7.80;99.90;;;;;;5067324;28;20078;-77
2022/05/07 04:17:15;;;;;;;11.52;10.30;;;7.80;99.90;;;;;;5062694;28;20029;-76
2022/05/07 04:19:41;;;;;;;12.20;11.00;;;8.00;99.90;;;;;;5065748;28;20036;-76
2022/05/07 04:22:06;;;;;;;10.98;9.95;;;8.10;99.90;;;;;;5061101;28;20099;-76
2022/05/07 04:24:36;;;;;;;10.00;8.98;;;7.90;99.90;;;;;;5067445;28;20397;-76
2022/05/07 04:27:02;;;;;;;11.07;10.07;;;7.80;99.90;;;;;;5078445;28;20028;-76
2022/05/07 04:29:27;;;;;;;11.55;10.55;;;7.90;99.90;;;;;;5055221;28;20024;-76
2022/05/07 04:31:53;;;;;;;9.90;9.00;;;8.00;99.90;;;;;;5059321;28;20065;-76
2022/05/07 04:34:19;;;;;;;10.52;9.50;;;8.00;99.90;;;;;;5055239;28;20037;-76
2022/05/07 04:36:44;;;;;;;9.65;8.70;;;8.10;99.90;;;;;;5060803;28;20017;-75
2022/05/07 04:39:10;;;;;;;9.77;8.88;;;8.20;99.90;;;;;;5065352;28;20104;-75
2022/05/07 04:41:35;;;;;;;9.25;8.35;;;8.20;99.90;;;;;;5061218;28;20032;-76
2022/05/07 04:44:01;;;;;;;10.70;8.32;;;8.30;99.90;;;;;;5058533;28;20039;-75
2022/05/07 04:46:27;;;;;;;10.13;9.13;;;8.50;99.90;;;;;;5062020;28;20060;-76
2022/05/07 04:48:53;;;;;;;8.70;7.90;;;8.50;99.90;;;;;;5065365;28;20027;-75
2022/05/07 04:51:18;;;;;;;9.15;8.35;;;8.50;99.90;;;;;;5060930;28;20107;-76
2022/05/07 04:53:44;;;;;;;9.95;9.05;;;8.50;99.90;;;;;;5056624;28;20025;-75
2022/05/07 04:56:10;;;;;;;10.10;8.90;;;8.60;99.90;;;;;;5061933;28;20044;-76
2022/05/07 04:58:35;;;;;;;50.67;37.30;;;8.60;99.90;;;;;;5052334;28;20474;-76
2022/05/07 05:01:01;;;;;;;53.38;38.30;;;8.60;99.90;;;;;;5058919;28;20060;-75
2022/05/07 05:03:26;;;;;;;12.95;11.35;;;8.70;99.90;;;;;;5065162;28;20033;-75
2022/05/07 05:05:52;;;;;;;10.00;9.15;;;8.70;99.90;;;;;;5051565;28;20025;-75
2022/05/07 05:08:17;;;;;;;10.27;8.80;;;8.70;99.90;;;;;;5051546;28;20550;-76
2022/05/07 05:10:43;;;;;;;10.40;9.35;;;8.70;99.90;;;;;;5059888;28;20041;-75
2022/05/07 05:13:09;;;;;;;9.93;8.73;;;8.80;99.90;;;;;;5058233;28;20017;-75
2022/05/07 05:15:35;;;;;;;10.57;9.68;;;9.00;99.90;;;;;;5062507;28;20043;-75
2022/05/07 05:18:01;;;;;;;9.50;8.38;;;8.90;99.90;;;;;;5052665;28;20028;-75
2022/05/07 05:20:26;;;;;;;10.43;8.15;;;8.90;99.90;;;;;;5061809;28;20542;-75
2022/05/07 05:22:52;;;;;;;10.65;9.13;;;9.20;99.90;;;;;;5063456;28;20501;-75
2022/05/07 05:25:19;;;;;;;10.15;8.55;;;9.20;99.90;;;;;;5050167;28;20029;-75
2022/05/07 05:27:45;;;;;;;9.40;8.50;;;9.20;99.90;;;;;;5052971;28;20032;-75
2022/05/07 05:30:11;;;;;;;9.73;8.63;;;9.40;99.90;;;;;;5061700;28;20033;-75
2022/05/07 05:32:37;;;;;;;8.93;8.15;;;9.50;99.90;;;;;;5064331;28;20033;-75
2022/05/07 05:35:03;;;;;;;9.05;8.15;;;9.50;99.90;;;;;;5059460;28;20013;-76
2022/05/07 05:37:30;;;;;;;9.52;8.63;;;9.70;99.90;;;;;;5057793;28;20025;-75
2022/05/07 05:39:56;;;;;;;9.15;8.25;;;9.70;99.90;;;;;;5061849;28;20021;-75
2022/05/07 05:42:22;;;;;;;9.88;7.90;;;9.60;99.90;;;;;;5064232;28;20029;-75
2022/05/07 05:44:48;;;;;;;8.55;7.75;;;9.70;99.90;;;;;;5061147;28;20625;-76
2022/05/07 05:47:13;;;;;;;8.95;8.02;;;9.80;99.90;;;;;;5057834;28;20025;-75
2022/05/07 05:49:39;;;;;;;8.18;7.45;;;9.90;99.90;;;;;;5061641;28;20034;-75
2022/05/07 05:52:06;;;;;;;8.30;6.63;;;10.10;99.90;;;;;;5050626;28;20024;-75
2022/05/07 05:54:31;;;;;;;10.07;6.95;;;10.50;99.90;;;;;;5059597;28;20434;-75
2022/05/07 05:56:58;;;;;;;8.48;7.65;;;10.60;99.90;;;;;;5054819;28;20066;-75
2022/05/07 05:59:24;;;;;;;7.90;7.10;;;10.70;99.90;;;;;;5060799;28;20020;-75
2022/05/07 06:01:50;;;;;;;8.02;6.63;;;10.80;99.90;;;;;;5066235;28;20032;-72
2022/05/07 06:04:15;;;;;;;8.57;7.30;;;10.90;99.90;;;;;;5060408;28;20032;-75
2022/05/07 06:06:41;;;;;;;8.18;6.47;;;11.00;99.90;;;;;;5057945;28;20021;-75
2022/05/07 06:09:07;;;;;;;8.00;7.20;;;10.90;99.90;;;;;;5053362;28;20029;-75
2022/05/07 06:11:33;;;;;;;7.93;7.18;;;10.90;99.90;;;;;;5054118;28;20215;-75
2022/05/07 06:13:58;;;;;;;7.78;6.97;;;11.00;99.90;;;;;;5054496;28;20086;-74
2022/05/07 06:16:24;;;;;;;8.60;7.75;;;10.90;99.90;;;;;;5068008;28;20021;-75
2022/05/07 06:18:50;;;;;;;9.82;7.53;;;10.90;99.90;;;;;;5063948;28;20029;-75
2022/05/07 06:21:16;;;;;;;8.75;7.95;;;11.10;99.90;;;;;;5060236;28;20039;-75
2022/05/07 06:23:41;;;;;;;8.70;7.65;;;11.10;99.90;;;;;;5072921;28;20608;-76
2022/05/07 06:28:52;;;;;;;8.48;7.57;;;11.30;99.90;;;;;;5066501;28;20509;-77
2022/05/07 06:31:17;;;;;;;8.70;7.90;;;11.50;99.90;;;;;;5060158;28;20025;-76
2022/05/07 06:33:43;;;;;;;8.30;7.38;;;11.60;99.90;;;;;;5062543;28;20100;-76
2022/05/07 06:36:09;;;;;;;8.52;7.63;;;11.70;99.90;;;;;;5067564;28;20013;-77
2022/05/07 06:38:35;;;;;;;9.63;7.43;;;11.90;99.90;;;;;;5064558;28;20522;-76
2022/05/07 06:41:03;;;;;;;7.95;7.15;;;11.90;99.90;;;;;;5060138;28;20025;-76
2022/05/07 06:43:30;;;;;;;8.48;7.28;;;12.10;99.90;;;;;;5060996;28;20452;-76
2022/05/07 06:45:56;;;;;;;8.70;7.70;;;12.30;99.90;;;;;;5067691;28;20100;-76
2022/05/07 06:48:21;;;;;;;7.68;6.82;;;12.40;99.90;;;;;;5054218;28;20075;-76
2022/05/07 06:50:47;;;;;;;7.05;6.40;;;12.50;99.90;;;;;;5057048;28;20464;-76
2022/05/07 06:53:12;;;;;;;8.00;5.78;;;12.70;99.90;;;;;;5060931;28;20028;-76
2022/05/07 06:55:54;;;;;;;7.78;6.28;;;12.80;99.90;;;;;;5065834;28;20044;-76
2022/05/07 06:58:21;;;;;;;7.63;6.47;;;13.00;99.90;;;;;;5065895;28;20032;-76
2022/05/07 07:00:47;;;;;;;6.68;6.05;;;13.10;99.90;;;;;;5051830;28;20021;-76
2022/05/07 07:03:13;;;;;;;7.18;6.32;;;13.30;99.90;;;;;;5066795;28;20053;-76
2022/05/07 07:05:38;;;;;;;7.82;6.40;;;13.20;99.90;;;;;;5061210;28;20031;-76
2022/05/07 07:08:04;;;;;;;7.22;6.35;;;13.40;99.90;;;;;;5059986;28;20537;-76
2022/05/07 07:10:29;;;;;;;8.57;6.78;;;13.40;99.90;;;;;;5064407;28;20047;-76
2022/05/07 07:12:55;;;;;;;9.43;6.20;;;13.60;99.90;;;;;;5067144;28;20028;-76
2022/05/07 07:15:20;;;;;;;6.70;6.03;;;13.70;99.90;;;;;;5060434;28;20092;-76
2022/05/07 07:17:46;;;;;;;8.80;6.35;;;13.70;99.90;;;;;;5060048;28;20025;-76
2022/05/07 07:20:11;;;;;;;7.07;6.32;;;13.80;99.90;;;;;;5064352;28;20029;-76
2022/05/07 07:22:37;;;;;;;7.43;6.50;;;13.90;99.90;;;;;;5066336;28;20051;-76
2022/05/07 07:25:03;;;;;;;10.48;5.85;;;14.10;99.90;;;;;;5058540;28;20027;-76
2022/05/07 07:27:28;;;;;;;7.15;5.65;;;14.30;99.90;;;;;;5060247;28;20055;-77
2022/05/07 07:29:54;;;;;;;5.97;5.20;;;14.40;99.90;;;;;;5059218;28;20032;-75
2022/05/07 07:32:19;;;;;;;10.90;5.95;;;14.50;99.90;;;;;;5060028;28;20244;-76
2022/05/07 07:34:45;;;;;;;5.32;4.85;;;14.70;99.90;;;;;;5066250;28;20047;-74
2022/05/07 07:37:10;;;;;;;8.10;4.82;;;14.80;99.90;;;;;;5053043;28;20553;-75
2022/05/07 07:39:36;;;;;;;6.25;4.32;;;15.10;99.90;;;;;;5059253;28;20077;-76
2022/05/07 07:42:01;;;;;;;5.50;4.20;;;15.00;99.90;;;;;;5059655;28;20092;-76
2022/05/07 07:44:27;;;;;;;9.70;5.32;;;15.20;99.90;;;;;;5065129;28;20035;-76
2022/05/07 07:49:38;;;;;;;5.25;4.30;;;15.30;99.90;;;;;;5061554;28;20040;-76
2022/05/07 07:52:05;;;;;;;4.07;3.67;;;15.60;99.90;;;;;;5071079;28;20025;-76
2022/05/07 07:54:30;;;;;;;6.82;4.03;;;15.70;99.90;;;;;;5062851;28;20053;-76
2022/05/07 07:56:58;;;;;;;8.02;3.72;;;15.70;99.90;;;;;;5064885;28;20052;-76
2022/05/07 07:59:23;;;;;;;4.28;2.83;;;15.70;99.90;;;;;;5061562;28;20013;-76
2022/05/07 08:01:49;;;;;;;3.70;3.17;;;15.90;99.90;;;;;;5057382;28;20043;-76
2022/05/07 08:04:14;;;;;;;3.88;3.00;;;16.00;99.90;;;;;;5062958;28;20422;-75
2022/05/07 08:06:40;;;;;;;4.13;3.03;;;16.20;99.90;;;;;;5066056;28;20031;-76
2022/05/07 08:11:55;;;;;;;4.97;3.38;;;16.40;99.90;;;;;;5066970;28;20044;-76
2022/05/07 08:14:21;;;;;;;5.93;3.00;;;16.40;99.90;;;;;;5065004;28;20378;-76
2022/05/07 08:16:46;;;;;;;4.10;2.67;;;16.70;99.90;;;;;;5058928;28;20032;-76
2022/05/07 08:19:12;;;;;;;4.00;2.55;;;16.80;99.90;;;;;;5058316;28;20036;-76
2022/05/07 08:21:38;;;;;;;3.45;2.58;;;16.40;99.90;;;;;;5065008;28;20032;-76
2022/05/07 08:24:04;;;;;;;4.47;2.25;;;16.40;99.90;;;;;;5063717;28;20482;-76
2022/05/07 08:26:29;;;;;;;4.88;2.30;;;16.40;99.90;;;;;;5058511;28;20110;-76
2022/05/07 08:28:55;;;;;;;3.83;2.10;;;16.60;99.90;;;;;;5059497;28;20049;-76
2022/05/07 08:31:22;;;;;;;7.95;2.47;;;16.80;99.90;;;;;;5071336;28;20020;-76
2022/05/07 08:33:48;;;;;;;4.95;1.90;;;16.70;99.90;;;;;;5079222;28;20031;-73
2022/05/07 08:36:14;;;;;;;3.40;2.03;;;16.80;99.90;;;;;;5052321;28;20021;-76
2022/05/07 08:38:42;;;;;;;2.53;1.73;;;16.50;99.90;;;;;;5052056;28;20245;-76
2022/05/07 08:41:12;;;;;;;5.13;1.90;;;16.70;99.90;;;;;;5064740;28;20399;-76
2022/05/07 08:43:41;;;;;;;7.88;2.47;;;17.00;99.90;;;;;;5065411;28;20029;-76
2022/05/07 08:46:14;;;;;;;3.83;2.45;;;17.10;99.90;;;;;;5057892;28;20024;-76
2022/05/07 08:48:41;;;;;;;3.53;2.38;;;16.90;99.90;;;;;;5058527;28;20487;-75
2022/05/07 08:51:08;;;;;;;3.55;1.77;;;16.90;99.90;;;;;;5062692;28;20487;-76
2022/05/07 08:53:34;;;;;;;6.15;2.55;;;17.20;99.90;;;;;;5063920;28;20031;-76
2022/05/07 08:56:00;;;;;;;3.50;2.47;;;17.50;99.90;;;;;;5060185;28;20732;-76
2022/05/07 08:58:26;;;;;;;3.33;2.25;;;17.50;99.90;;;;;;5056694;28;20032;-76
2022/05/07 09:00:52;;;;;;;3.85;2.38;;;17.00;99.90;;;;;;5051056;28;20025;-77
2022/05/07 09:03:18;;;;;;;4.38;2.33;;;16.70;99.90;;;;;;5053157;28;20064;-76
2022/05/07 09:05:43;;;;;;;5.82;2.40;;;16.50;99.90;;;;;;5061981;28;20482;-76
2022/05/07 09:08:12;;;;;;;3.83;2.38;;;16.70;99.90;;;;;;5064841;28;20043;-77
2022/05/07 09:10:40;;;;;;;5.03;2.50;;;16.50;99.90;;;;;;5058501;28;20029;-75
2022/05/07 09:13:16;;;;;;;3.83;2.45;;;16.70;99.90;;;;;;5058040;28;20497;-76
2022/05/07 09:15:52;;;;;;;4.68;2.45;;;16.60;99.90;;;;;;5061539;28;20040;-77
2022/05/07 09:18:19;;;;;;;4.78;2.40;;;16.60;99.90;;;;;;5065595;28;20074;-76
2022/05/07 09:20:56;;;;;;;6.28;2.47;;;16.60;99.90;;;;;;5063340;28;20033;-76
2022/05/07 09:23:24;;;;;;;4.90;2.70;;;17.20;99.90;;;;;;5051658;28;20028;-77
2022/05/07 09:25:50;;;;;;;3.55;2.45;;;17.60;99.90;;;;;;5050122;28;20045;-77
2022/05/07 09:28:26;;;;;;;4.70;2.40;;;17.70;99.90;;;;;;5050379;28;20495;-76
2022/05/07 09:30:56;;;;;;;4.70;2.60;;;18.00;99.90;;;;;;5064237;28;20559;-77
2022/05/07 09:33:34;;;;;;;4.57;2.65;;;18.20;99.90;;;;;;5060112;28;20028;-76
2022/05/07 09:36:10;;;;;;;3.17;2.88;;;18.60;99.90;;;;;;5070155;28;20107;-76
2022/05/07 09:38:37;;;;;;;4.85;2.80;;;18.50;99.90;;;;;;5071407;28;20093;-76
2022/05/07 09:41:02;;;;;;;3.22;2.35;;;18.60;99.90;;;;;;5070699;28;20036;-77
2022/05/07 09:43:30;;;;;;;2.47;2.28;;;18.50;99.90;;;;;;5061145;28;20404;-76
2022/05/07 09:45:56;;;;;;;3.75;2.88;;;18.60;99.90;;;;;;5054921;28;20032;-77
2022/05/07 09:48:22;;;;;;;3.63;2.60;;;18.80;99.90;;;;;;5067771;28;20025;-76
2022/05/07 09:50:48;;;;;;;3.03;2.40;;;18.90;99.90;;;;;;5074960;28;20032;-76
2022/05/07 09:58:51;;;;;;;4.10;2.50;;;19.30;99.90;;;;;;5075720;28;20086;-77
2022/05/07 10:01:40;;;;;;;5.40;2.40;;;19.10;99.50;;;;;;5073978;28;20078;-77
2022/05/07 10:04:32;;;;;;;7.40;2.92;;;19.00;99.90;;;;;;5075755;28;20514;-76
2022/05/07 10:07:22;;;;;;;4.93;2.50;;;19.10;99.90;;;;;;5070455;28;20029;-75
2022/05/07 10:10:02;;;;;;;3.10;2.35;;;19.20;99.10;;;;;;5073619;28;20055;-76
2022/05/07 10:12:28;;;;;;;4.90;2.67;;;19.60;99.90;;;;;;5063710;28;20392;-77
2022/05/07 10:15:07;;;;;;;2.75;2.15;;;19.90;99.50;;;;;;5057508;28;20025;-76
2022/05/07 10:17:34;;;;;;;4.65;2.88;;;20.00;98.80;;;;;;5067102;28;20082;-77
2022/05/07 10:20:08;;;;;;;4.30;2.90;;;20.00;99.20;;;;;;5062055;28;20048;-76
2022/05/07 10:22:34;;;;;;;5.07;3.10;;;20.00;98.30;;;;;;5060854;28;20060;-76
2022/05/07 10:25:07;;;;;;;3.10;2.75;;;20.10;98.30;;;;;;5054510;28;20068;-76
2022/05/07 10:27:36;;;;;;;6.20;2.60;;;19.80;98.20;;;;;;5067915;28;20020;-77
2022/05/07 10:30:21;;;;;;;4.90;3.08;;;20.10;98.80;;;;;;5062574;28;20028;-76
2022/05/07 10:32:54;;;;;;;5.63;3.53;;;20.20;99.20;;;;;;5059858;28;20021;-76
2022/05/07 10:35:52;;;;;;;7.32;3.80;;;20.20;99.40;;;;;;5062669;28;20538;-76
2022/05/07 10:38:26;;;;;;;5.95;3.20;;;19.70;97.70;;;;;;5059179;28;20021;-76
2022/05/07 10:41:14;;;;;;;4.22;3.50;;;19.60;98.40;;;;;;5057430;28;20021;-77
2022/05/07 10:43:47;;;;;;;4.43;3.03;;;20.10;99.40;;;;;;5060750;28;20025;-76
2022/05/07 10:46:20;;;;;;;3.33;3.00;;;20.30;99.10;;;;;;5066445;28;20021;-77
2022/05/07 10:48:56;;;;;;;5.97;3.33;;;19.80;97.80;;;;;;5067444;28;20078;-76
2022/05/07 10:51:26;;;;;;;3.40;3.10;;;19.20;99.20;;;;;;5063616;28;20028;-76
2022/05/07 10:53:52;;;;;;;3.92;2.90;;;19.20;99.40;;;;;;5060223;28;20036;-77
2022/05/07 10:56:19;;;;;;;5.75;2.60;;;19.60;98.20;;;;;;5062268;28;20017;-76
2022/05/07 10:58:46;;;;;;;4.85;2.38;;;19.80;99.10;;;;;;5065990;28;20025;-76
2022/05/07 11:01:12;;;;;;;5.57;3.10;;;20.10;97.80;;;;;;5051749;28;20032;-76
2022/05/07 11:03:41;;;;;;;4.72;2.60;;;19.60;97.70;;;;;;5065716;28;20068;-77
2022/05/07 11:06:07;;;;;;;7.22;2.65;;;19.30;97.60;;;;;;5065411;28;20100;-75
2022/05/07 11:08:35;;;;;;;3.67;2.35;;;20.00;98.20;;;;;;5060452;28;20111;-76
2022/05/07 11:11:09;;;;;;;2.92;2.45;;;20.10;98.80;;;;;;5061237;28;20559;-76
2022/05/07 11:13:55;;;;;;;8.25;3.55;;;20.00;96.70;;;;;;5065422;28;20025;-76
2022/05/07 11:16:22;;;;;;;5.18;3.15;;;19.90;97.90;;;;;;5052464;28;20098;-75
2022/05/07 11:18:54;;;;;;;5.72;2.95;;;19.60;98.20;;;;;;5062568;28;20043;-75
2022/05/07 11:21:22;;;;;;;4.30;2.63;;;19.40;98.40;;;;;;5059589;28;20028;-76
2022/05/07 11:23:55;;;;;;;5.30;2.40;;;19.80;98.50;;;;;;5063407;28;20029;-75
2022/05/07 11:26:20;;;;;;;3.75;2.95;;;20.50;97.40;;;;;;5066801;28;20025;-75
2022/05/07 11:28:47;;;;;;;3.83;2.53;;;21.10;96.70;;;;;;5064311;28;20058;-77
2022/05/07 11:31:32;;;;;;;5.07;2.55;;;20.90;95.20;;;;;;5059184;28;20024;-76
2022/05/07 11:34:07;;;;;;;4.00;2.72;;;21.30;96.10;;;;;;5058127;28;20021;-75
2022/05/07 11:36:34;;;;;;;3.60;2.83;;;21.60;95.50;;;;;;5053359;28;20036;-77
2022/05/07 11:39:08;;;;;;;3.53;2.42;;;21.70;95.70;;;;;;5054677;28;20035;-77
2022/05/07 11:41:34;;;;;;;2.85;2.42;;;22.30;98.60;;;;;;5063084;28;20078;-76
2022/05/07 11:46:55;;;;;;;4.45;2.47;;;22.60;95.30;;;;;;5053343;28;20040;-75
2022/05/07 11:49:28;;;;;;;4.13;2.83;;;21.60;95.00;;;;;;5058041;28;20060;-75
2022/05/07 11:52:10;;;;;;;5.60;3.00;;;21.10;96.80;;;;;;5058841;28;20025;-76
2022/05/07 11:54:49;;;;;;;4.97;3.08;;;20.50;97.40;;;;;;5063080;28;20059;-76
2022/05/07 11:57:25;;;;;;;3.25;2.65;;;20.10;97.00;;;;;;5066285;28;20024;-75
2022/05/07 11:59:51;;;;;;;4.35;3.00;;;19.90;96.00;;;;;;5064508;28;20478;-75
2022/05/07 12:02:16;;;;;;;3.05;2.65;;;19.90;96.80;;;;;;5058669;28;20060;-75
2022/05/07 12:04:42;;;;;;;5.95;2.88;;;19.90;97.30;;;;;;5071117;28;20036;-75
2022/05/07 12:07:10;;;;;;;5.65;2.90;;;20.60;96.90;;;;;;5064417;28;20425;-75
2022/05/07 12:09:35;;;;;;;6.97;2.75;;;21.30;94.30;;;;;;5066161;28;20020;-75
2022/05/07 12:12:01;;;;;;;6.03;2.60;;;21.60;92.90;;;;;;5064767;28;20390;-75
2022/05/07 12:14:27;;;;;;;5.85;3.00;;;21.80;93.60;;;;;;5052291;28;20437;-76
2022/05/07 12:19:37;;;;;;;2.75;2.45;;;22.40;94.20;;;;;;5059018;28;20075;-76
2022/05/07 12:30:14;;;;;;;2.80;2.40;;;23.10;90.40;;;;;;5061344;28;20509;-75
2022/05/07 12:32:43;;;;;;;2.50;2.30;;;23.50;91.50;;;;;;5065516;28;20033;-76
2022/05/07 12:35:10;;;;;;;5.00;2.20;;;23.50;87.50;;;;;;5062836;28;20389;-75
2022/05/07 12:37:37;;;;;;;3.92;2.17;;;23.50;88.40;;;;;;5058918;28;20497;-75
2022/05/07 12:40:04;;;;;;;2.65;2.30;;;24.10;86.40;;;;;;5061036;28;20466;-76
2022/05/07 12:42:29;;;;;;;9.30;4.30;;;23.70;83.70;;;;;;5064541;28;20028;-76
2022/05/07 12:44:55;;;;;;;3.50;2.30;;;23.80;86.00;;;;;;5062727;28;20025;-73
2022/05/07 12:47:21;;;;;;;4.75;1.95;;;22.90;85.50;;;;;;5058308;28;20037;-76
2022/05/07 12:49:46;;;;;;;3.08;1.70;;;22.60;90.10;;;;;;5060791;28;20021;-76
2022/05/07 12:52:13;;;;;;;3.30;1.65;;;22.30;86.10;;;;;;5064339;28;20028;-76
2022/05/07 12:54:39;;;;;;;2.83;2.00;;;23.10;86.80;;;;;;5061424;28;20052;-76
2022/05/07 12:57:05;;;;;;;3.05;1.95;;;22.60;87.20;;;;;;5056910;28;20496;-77
2022/05/07 12:59:31;;;;;;;3.95;2.50;;;21.70;88.80;;;;;;5061607;28;20025;-76
2022/05/07 13:01:57;;;;;;;4.63;2.20;;;22.10;90.20;;;;;;5056545;28;20132;-77
2022/05/07 13:04:24;;;;;;;3.45;2.15;;;22.20;89.60;;;;;;5062893;28;20532;-78
2022/05/07 13:06:51;;;;;;;2.58;2.10;;;21.60;90.00;;;;;;5065467;28;20107;-76
2022/05/07 13:09:17;;;;;;;2.50;2.15;;;21.80;89.90;;;;;;5061604;28;20024;-76
2022/05/07 13:11:43;;;;;;;6.15;2.90;;;21.30;90.20;;;;;;5055728;28;20093;-76
2022/05/07 13:14:09;;;;;;;2.33;1.90;;;21.20;90.70;;;;;;5060168;28;20467;-75
2022/05/07 13:16:35;;;;;;;3.25;2.30;;;21.20;90.10;;;;;;5051281;28;20017;-77
2022/05/07 13:19:00;;;;;;;3.67;1.90;;;22.00;90.20;;;;;;5061217;28;20016;-77
2022/05/07 13:21:26;;;;;;;2.75;2.13;;;21.50;89.60;;;;;;5057401;28;20051;-77
2022/05/07 13:23:51;;;;;;;3.38;1.80;;;21.30;90.80;;;;;;5060779;28;20028;-77
2022/05/07 13:26:17;;;;;;;4.03;2.58;;;21.70;91.00;;;;;;5064893;28;20059;-76
2022/05/07 13:28:42;;;;;;;4.18;2.33;;;22.20;91.70;;;;;;5051277;28;20475;-76
2022/05/07 13:31:08;;;;;;;4.30;2.22;;;24.20;86.00;;;;;;5062749;28;20029;-76
2022/05/07 13:33:33;;;;;;;3.30;2.30;;;24.80;84.10;;;;;;5051316;28;20025;-77